createdAt,value
2023-09-29T00:00:53.578Z,20.67
2023-09-29T00:03:21.467Z,22.20
2023-09-29T00:05:50.266Z,21.37
2023-09-29T00:08:18.459Z,23.50
2023-09-29T00:10:48.051Z,22.23
2023-09-29T00:13:15.513Z,21.57
2023-09-29T00:15:42.924Z,23.53
2023-09-29T00:18:11.761Z,21.47
2023-09-29T00:20:39.383Z,22.80
2023-09-29T00:23:06.978Z,22.50
2023-09-29T00:25:34.875Z,23.93
2023-09-29T00:28:02.448Z,23.47
2023-09-29T00:30:29.951Z,32.90
2023-09-29T00:32:57.547Z,23.00
2023-09-29T00:35:29.298Z,22.97
2023-09-29T00:37:58.249Z,38.77
2023-09-29T00:40:26.866Z,20.87
2023-09-29T00:42:54.749Z,34.57
2023-09-29T00:45:24.969Z,32.80
2023-09-29T00:47:56.937Z,23.20
2023-09-29T00:50:29.238Z,20.53
2023-09-29T00:53:00.820Z,19.73
2023-09-29T00:55:31.701Z,56.23
2023-09-29T00:58:00.731Z,22.73
2023-09-29T01:00:34.203Z,35.67
2023-09-29T01:03:06.125Z,24.13
2023-09-29T01:05:39.476Z,23.77
2023-09-29T01:08:10.739Z,22.37
2023-09-29T01:10:38.860Z,21.10
2023-09-29T01:13:06.836Z,22.40
2023-09-29T01:15:35.805Z,21.90
2023-09-29T01:18:03.970Z,29.40
2023-09-29T01:20:31.750Z,21.60
2023-09-29T01:23:02.316Z,22.67
2023-09-29T01:25:31.295Z,27.30
2023-09-29T01:27:59.674Z,39.80
2023-09-29T01:30:28.710Z,31.03
2023-09-29T01:33:00.426Z,21.67
2023-09-29T01:35:29.328Z,22.20
2023-09-29T01:38:00.265Z,24.70
2023-09-29T01:40:29.251Z,21.87
2023-09-29T01:42:58.906Z,62.27
2023-09-29T01:45:28.080Z,23.37
2023-09-29T01:47:56.737Z,25.43
2023-09-29T01:50:25.472Z,24.17
2023-09-29T01:52:53.662Z,21.07
2023-09-29T01:55:24.060Z,20.37
2023-09-29T01:57:55.694Z,20.17
2023-09-29T02:00:26.673Z,20.27
2023-09-29T02:02:56.168Z,19.80
2023-09-29T02:05:25.401Z,18.53
2023-09-29T02:07:53.499Z,20.43
2023-09-29T02:10:22.134Z,19.73
2023-09-29T02:12:55.326Z,19.07
2023-09-29T02:15:24.547Z,16.70
2023-09-29T02:17:52.292Z,20.00
2023-09-29T02:20:22.273Z,19.20
2023-09-29T02:22:50.630Z,19.07
2023-09-29T02:25:19.975Z,20.03
2023-09-29T02:27:48.351Z,19.13
2023-09-29T02:30:15.966Z,18.10
2023-09-29T02:32:44.836Z,19.27
2023-09-29T02:35:12.534Z,18.53
2023-09-29T02:37:40.806Z,17.80
2023-09-29T02:40:16.087Z,17.63
2023-09-29T02:42:45.426Z,20.23
2023-09-29T02:45:13.191Z,18.60
2023-09-29T02:47:42.530Z,17.80
2023-09-29T02:50:12.970Z,18.67
2023-09-29T02:52:41.548Z,18.13
2023-09-29T02:55:14.231Z,18.27
2023-09-29T02:57:43.844Z,18.63
2023-09-29T03:00:16.927Z,18.80
2023-09-29T03:02:45.018Z,17.87
2023-09-29T03:05:17.091Z,16.70
2023-09-29T03:07:45.141Z,18.00
2023-09-29T03:10:14.705Z,18.17
2023-09-29T03:12:43.863Z,18.07
2023-09-29T03:15:13.108Z,16.57
2023-09-29T03:17:40.659Z,15.37
2023-09-29T03:20:12.162Z,16.67
2023-09-29T03:22:41.714Z,16.93
2023-09-29T03:25:11.650Z,15.93
2023-09-29T03:27:40.133Z,17.50
2023-09-29T03:30:10.774Z,16.93
2023-09-29T03:32:38.462Z,19.13
2023-09-29T03:35:06.970Z,17.70
2023-09-29T03:37:37.366Z,17.03
2023-09-29T03:40:09.990Z,17.70
2023-09-29T03:42:38.174Z,17.57
2023-09-29T03:45:07.572Z,18.30
2023-09-29T03:47:35.583Z,21.37
2023-09-29T03:50:04.739Z,17.93
2023-09-29T03:52:33.326Z,17.60
2023-09-29T03:55:00.962Z,16.63
2023-09-29T03:57:29.755Z,18.47
2023-09-29T03:59:57.270Z,18.80
2023-09-29T04:02:24.759Z,19.40
2023-09-29T04:04:52.196Z,18.93
2023-09-29T04:07:19.620Z,18.77
2023-09-29T04:09:47.225Z,18.33
2023-09-29T04:12:14.651Z,17.03
2023-09-29T04:14:43.496Z,19.17
2023-09-29T04:17:10.951Z,17.73
2023-09-29T04:19:39.611Z,16.57
2023-09-29T04:22:07.089Z,19.00
2023-09-29T04:24:34.970Z,17.83
2023-09-29T04:27:02.470Z,17.93
2023-09-29T04:29:30.106Z,18.07
2023-09-29T04:31:58.964Z,16.70
2023-09-29T04:34:26.388Z,17.57
2023-09-29T04:36:54.929Z,17.70
2023-09-29T04:39:22.418Z,17.77
2023-09-29T04:41:49.934Z,16.87
2023-09-29T04:44:17.418Z,17.23
2023-09-29T04:46:44.915Z,17.20
2023-09-29T04:49:13.708Z,16.93
2023-09-29T04:51:41.149Z,18.90
2023-09-29T04:54:08.813Z,17.07
2023-09-29T04:56:36.401Z,16.87
2023-09-29T04:59:04.133Z,16.60
2023-09-29T05:01:31.765Z,18.53
2023-09-29T05:03:59.443Z,17.70
2023-09-29T05:06:29.793Z,15.93
2023-09-29T05:08:57.671Z,18.73
2023-09-29T05:11:27.204Z,17.97
2023-09-29T05:13:57.132Z,16.97
2023-09-29T05:16:25.553Z,17.53
2023-09-29T05:18:54.682Z,18.20
2023-09-29T05:21:24.127Z,17.83
2023-09-29T05:23:52.942Z,17.57
2023-09-29T05:26:20.623Z,16.47
2023-09-29T05:28:48.060Z,18.97
2023-09-29T05:31:15.519Z,17.23
2023-09-29T05:33:43.030Z,16.27
2023-09-29T05:36:10.622Z,16.27
2023-09-29T05:38:38.263Z,15.73
2023-09-29T05:41:07.288Z,16.03
2023-09-29T05:43:35.048Z,17.67
2023-09-29T05:46:02.691Z,14.83
2023-09-29T05:48:30.274Z,19.47
2023-09-29T05:50:58.077Z,14.90
2023-09-29T05:53:25.637Z,15.77
2023-09-29T05:55:53.086Z,15.47
2023-09-29T05:58:22.763Z,14.27
2023-09-29T06:00:50.440Z,15.02
2023-09-29T06:03:18.071Z,13.37
2023-09-29T06:05:45.696Z,13.70
2023-09-29T06:08:13.272Z,13.30
2023-09-29T06:10:40.975Z,13.60
2023-09-29T06:13:10.479Z,11.70
2023-09-29T06:15:40.793Z,11.45
2023-09-29T06:18:09.035Z,14.65
2023-09-29T06:20:36.683Z,12.65
2023-09-29T06:23:04.453Z,11.52
2023-09-29T06:25:31.991Z,11.32
2023-09-29T06:27:59.453Z,14.30
2023-09-29T06:30:27.086Z,12.37
2023-09-29T06:32:56.158Z,12.52
2023-09-29T06:35:23.908Z,11.10
2023-09-29T06:37:52.599Z,12.17
2023-09-29T06:40:20.146Z,12.60
2023-09-29T06:42:47.616Z,15.97
2023-09-29T06:45:15.085Z,11.03
2023-09-29T06:47:42.621Z,11.65
2023-09-29T06:50:12.321Z,10.85
2023-09-29T06:52:40.821Z,10.30
2023-09-29T06:55:09.109Z,13.27
2023-09-29T06:57:36.761Z,10.75
2023-09-29T07:00:06.981Z,11.60
2023-09-29T07:02:34.626Z,11.45
2023-09-29T07:05:04.131Z,14.48
2023-09-29T07:07:33.217Z,13.77
2023-09-29T07:10:00.704Z,11.40
2023-09-29T07:12:28.204Z,11.60
2023-09-29T07:14:55.754Z,14.00
2023-09-29T07:17:23.249Z,11.57
2023-09-29T07:19:50.695Z,10.55
2023-09-29T07:22:18.185Z,10.93
2023-09-29T07:24:47.471Z,9.85
2023-09-29T07:27:15.056Z,10.15
2023-09-29T07:29:42.574Z,12.13
2023-09-29T07:32:13.076Z,11.75
2023-09-29T07:34:40.877Z,10.85
2023-09-29T07:37:08.348Z,13.00
2023-09-29T07:39:35.750Z,10.80
2023-09-29T07:42:04.669Z,9.65
2023-09-29T07:44:33.084Z,10.40
2023-09-29T07:47:00.786Z,11.80
2023-09-29T07:49:28.914Z,11.43
2023-09-29T07:51:56.504Z,10.15
2023-09-29T07:54:24.195Z,11.57
2023-09-29T07:56:51.883Z,8.63
2023-09-29T07:59:21.015Z,8.80
2023-09-29T08:01:50.839Z,8.68
2023-09-29T08:04:18.962Z,9.15
2023-09-29T08:06:46.723Z,11.68
2023-09-29T08:09:14.845Z,9.80
2023-09-29T08:11:43.768Z,12.68
2023-09-29T08:14:12.009Z,12.00
2023-09-29T08:16:40.905Z,10.40
2023-09-29T08:19:08.429Z,10.27
2023-09-29T08:21:36.103Z,9.15
2023-09-29T08:24:05.094Z,10.38
2023-09-29T08:26:32.967Z,8.48
2023-09-29T08:29:01.250Z,12.70
2023-09-29T08:31:29.469Z,8.80
2023-09-29T08:33:58.315Z,9.63
2023-09-29T08:36:25.820Z,10.80
2023-09-29T08:38:53.501Z,14.23
2023-09-29T08:41:27.389Z,15.48
2023-09-29T08:44:06.172Z,13.93
2023-09-29T08:46:36.321Z,11.60
2023-09-29T08:49:06.468Z,9.30
2023-09-29T08:51:35.250Z,9.73
2023-09-29T08:54:04.989Z,8.57
2023-09-29T08:56:33.095Z,6.95
2023-09-29T08:59:01.907Z,8.30
2023-09-29T09:01:31.365Z,11.30
2023-09-29T09:03:59.215Z,7.10
2023-09-29T09:06:29.216Z,8.40
2023-09-29T09:08:57.719Z,8.13
2023-09-29T09:11:25.210Z,8.10
2023-09-29T09:14:00.869Z,8.20
2023-09-29T09:16:29.052Z,11.75
2023-09-29T09:18:56.829Z,9.00
2023-09-29T09:21:34.216Z,11.63
2023-09-29T09:24:01.749Z,13.50
2023-09-29T09:26:30.650Z,11.10
2023-09-29T09:29:08.999Z,11.07
2023-09-29T09:31:44.795Z,13.88
2023-09-29T09:34:14.038Z,7.30
2023-09-29T09:36:53.718Z,7.90
2023-09-29T09:39:25.076Z,9.65
2023-09-29T09:41:54.263Z,9.82
2023-09-29T09:44:22.170Z,12.52
2023-09-29T09:46:55.171Z,22.92
2023-09-29T09:49:30.303Z,12.48
2023-09-29T09:52:04.750Z,8.90
2023-09-29T09:54:36.091Z,7.63
2023-09-29T09:57:09.901Z,8.40
2023-09-29T09:59:38.162Z,7.30
2023-09-29T10:02:08.650Z,12.20
2023-09-29T10:04:38.512Z,6.50
2023-09-29T10:07:08.378Z,9.38
2023-09-29T10:09:44.739Z,10.82
2023-09-29T10:12:28.746Z,9.23
2023-09-29T10:14:57.215Z,6.80
2023-09-29T10:17:24.819Z,8.20
2023-09-29T10:19:55.414Z,7.50
2023-09-29T10:22:26.213Z,9.88
2023-09-29T10:24:58.306Z,7.75
2023-09-29T10:27:32.074Z,9.88
2023-09-29T10:30:17.549Z,8.77
2023-09-29T10:32:49.557Z,6.88
2023-09-29T10:35:21.975Z,10.88
2023-09-29T10:37:56.104Z,8.57
2023-09-29T10:40:26.711Z,7.20
2023-09-29T10:42:57.571Z,9.30
2023-09-29T10:45:31.254Z,7.75
2023-09-29T10:48:03.120Z,6.60
2023-09-29T10:50:30.974Z,8.43
2023-09-29T10:52:59.778Z,7.13
2023-09-29T10:55:27.420Z,7.32
2023-09-29T10:57:59.467Z,10.23
2023-09-29T11:00:27.022Z,10.27
2023-09-29T11:02:55.301Z,6.70
2023-09-29T11:05:22.832Z,8.95
2023-09-29T11:07:52.922Z,6.88
2023-09-29T11:10:22.444Z,6.15
2023-09-29T11:12:50.682Z,8.02
2023-09-29T11:15:19.731Z,7.50
2023-09-29T11:17:48.866Z,7.15
2023-09-29T11:20:26.041Z,14.98
2023-09-29T11:23:05.121Z,7.97
2023-09-29T11:25:34.239Z,8.95
2023-09-29T11:28:03.816Z,7.25
2023-09-29T11:30:31.355Z,7.00
2023-09-29T11:32:58.880Z,9.50
2023-09-29T11:35:26.569Z,7.25
2023-09-29T11:37:54.011Z,10.93
2023-09-29T11:40:21.688Z,6.38
2023-09-29T11:42:50.859Z,12.27
2023-09-29T11:45:18.364Z,6.45
2023-09-29T11:47:46.182Z,7.07
2023-09-29T11:50:14.225Z,7.25
2023-09-29T11:52:42.836Z,9.52
2023-09-29T11:55:12.744Z,13.50
2023-09-29T11:57:41.766Z,17.25
2023-09-29T12:00:12.873Z,12.45
2023-09-29T12:02:40.740Z,7.97
2023-09-29T12:05:10.406Z,6.38
2023-09-29T12:07:37.859Z,7.22
2023-09-29T12:10:06.294Z,9.48
2023-09-29T12:12:34.240Z,10.40
2023-09-29T12:15:01.938Z,9.73
2023-09-29T12:17:31.340Z,9.85
2023-09-29T12:19:59.844Z,11.73
2023-09-29T12:22:31.949Z,9.43
2023-09-29T12:24:59.529Z,6.72
2023-09-29T12:27:27.291Z,6.50
2023-09-29T12:29:55.031Z,10.00
2023-09-29T12:32:22.549Z,7.93
2023-09-29T12:34:51.874Z,8.80
2023-09-29T12:37:19.364Z,9.23
2023-09-29T12:39:50.504Z,7.57
2023-09-29T12:42:17.977Z,9.25
2023-09-29T12:44:47.784Z,11.70
2023-09-29T12:47:15.286Z,11.30
2023-09-29T12:49:43.307Z,9.15
2023-09-29T12:52:12.202Z,10.75
2023-09-29T12:54:40.339Z,10.05
2023-09-29T12:57:08.207Z,9.70
2023-09-29T12:59:37.278Z,11.10
2023-09-29T13:02:05.061Z,10.80
2023-09-29T13:04:32.671Z,7.13
2023-09-29T13:07:00.547Z,7.78
2023-09-29T13:09:29.747Z,8.02
2023-09-29T13:11:57.414Z,14.55
2023-09-29T13:14:25.503Z,10.73
2023-09-29T13:16:53.418Z,9.88
2023-09-29T13:19:23.525Z,7.10
2023-09-29T13:21:51.525Z,9.57
2023-09-29T13:24:19.805Z,7.32
2023-09-29T13:26:48.664Z,9.10
2023-09-29T13:29:16.585Z,9.50
2023-09-29T13:31:44.026Z,7.68
2023-09-29T13:34:11.805Z,8.63
2023-09-29T13:36:39.526Z,8.13
2023-09-29T13:39:08.619Z,14.05
2023-09-29T13:41:36.211Z,11.15
2023-09-29T13:44:05.491Z,11.05
2023-09-29T13:46:32.978Z,10.73
2023-09-29T13:49:00.454Z,10.32
2023-09-29T13:51:28.202Z,7.03
2023-09-29T13:53:56.035Z,6.45
2023-09-29T13:56:23.916Z,9.55
2023-09-29T13:58:51.911Z,10.35
2023-09-29T14:01:21.043Z,15.57
2023-09-29T14:03:48.845Z,12.15
2023-09-29T14:06:17.195Z,13.18
2023-09-29T14:08:44.751Z,14.95
2023-09-29T14:11:12.220Z,13.15
2023-09-29T14:13:39.662Z,19.05
2023-09-29T14:16:08.053Z,15.43
2023-09-29T14:18:36.819Z,13.93
2023-09-29T14:21:04.386Z,16.08
2023-09-29T14:23:34.680Z,12.95
2023-09-29T14:26:04.163Z,10.45
2023-09-29T14:28:31.614Z,9.43
2023-09-29T14:30:59.062Z,9.63
2023-09-29T14:33:26.549Z,14.90
2023-09-29T14:35:55.503Z,10.63
2023-09-29T14:38:22.978Z,14.18
2023-09-29T14:40:51.003Z,22.92
2023-09-29T14:43:18.444Z,11.68
2023-09-29T14:45:46.575Z,11.15
2023-09-29T14:48:14.224Z,8.70
2023-09-29T14:50:42.112Z,10.50
2023-09-29T14:53:11.584Z,10.82
2023-09-29T14:55:39.804Z,14.23
2023-09-29T14:58:07.461Z,11.93
2023-09-29T15:00:35.159Z,10.65
2023-09-29T15:03:03.130Z,10.23
2023-09-29T15:05:30.894Z,8.15
2023-09-29T15:07:58.420Z,13.40
2023-09-29T15:10:27.149Z,19.27
2023-09-29T15:12:54.659Z,12.90
2023-09-29T15:15:22.161Z,19.17
2023-09-29T15:17:49.884Z,25.67
2023-09-29T15:20:17.559Z,12.50
2023-09-29T15:22:45.055Z,10.05
2023-09-29T15:25:12.555Z,11.18
2023-09-29T15:27:41.833Z,12.23
2023-09-29T15:30:12.638Z,9.70
2023-09-29T15:32:42.422Z,9.82
2023-09-29T15:35:12.319Z,9.93
2023-09-29T15:37:39.984Z,13.68
2023-09-29T15:40:08.864Z,10.48
2023-09-29T15:42:36.294Z,9.13
2023-09-29T15:45:06.052Z,13.30
2023-09-29T15:47:33.599Z,9.25
2023-09-29T15:50:05.238Z,13.25
2023-09-29T15:52:32.750Z,11.77
2023-09-29T15:55:00.223Z,8.38
2023-09-29T15:57:28.589Z,10.85
2023-09-29T15:59:56.814Z,8.85
2023-09-29T16:02:27.460Z,20.08
2023-09-29T16:04:55.583Z,15.90
2023-09-29T16:07:23.153Z,89.63
2023-09-29T16:09:50.637Z,58.63
2023-09-29T16:12:18.370Z,24.45
2023-09-29T16:14:45.864Z,24.48
2023-09-29T16:17:13.326Z,16.83
2023-09-29T16:19:42.093Z,17.75
2023-09-29T16:22:10.335Z,10.00
2023-09-29T16:24:40.596Z,14.48
2023-09-29T16:27:08.126Z,14.82
2023-09-29T16:29:37.241Z,11.95
2023-09-29T16:32:10.959Z,14.75
2023-09-29T16:34:46.661Z,13.32
2023-09-29T16:37:15.283Z,12.30
2023-09-29T16:39:42.857Z,22.50
2023-09-29T16:42:10.302Z,28.15
2023-09-29T16:44:39.390Z,21.58
2023-09-29T16:47:06.857Z,26.85
2023-09-29T16:49:34.303Z,23.85
2023-09-29T16:52:03.123Z,19.52
2023-09-29T16:54:34.146Z,14.05
2023-09-29T16:57:01.938Z,11.38
2023-09-29T16:59:29.422Z,15.90
2023-09-29T17:01:57.174Z,14.25
2023-09-29T17:04:24.651Z,12.23
2023-09-29T17:06:52.128Z,14.73
2023-09-29T17:09:22.473Z,13.02
2023-09-29T17:11:50.124Z,21.63
2023-09-29T17:14:17.639Z,19.45
2023-09-29T17:16:45.227Z,14.88
2023-09-29T17:19:12.883Z,23.95
2023-09-29T17:21:40.459Z,28.95
2023-09-29T17:24:08.359Z,12.95
2023-09-29T17:26:37.213Z,25.40
2023-09-29T17:29:05.287Z,16.60
2023-09-29T17:31:33.487Z,16.52
2023-09-29T17:34:01.004Z,15.70
2023-09-29T17:36:28.545Z,11.38
2023-09-29T17:38:56.446Z,10.52
2023-09-29T17:41:24.021Z,13.52
2023-09-29T17:43:53.033Z,9.85
2023-09-29T17:46:20.525Z,32.28
2023-09-29T17:48:47.994Z,17.98
2023-09-29T17:51:16.624Z,19.95
2023-09-29T17:53:46.105Z,14.27
2023-09-29T17:56:14.232Z,13.45
2023-09-29T17:58:42.364Z,9.88
2023-09-29T18:01:12.113Z,9.52
2023-09-29T18:03:40.966Z,9.30
2023-09-29T18:06:09.380Z,12.20
2023-09-29T18:08:37.082Z,13.60
2023-09-29T18:11:05.430Z,13.70
2023-09-29T18:13:34.093Z,14.10
2023-09-29T18:16:01.732Z,30.54
2023-09-29T18:18:30.825Z,14.63
2023-09-29T18:21:01.045Z,35.92
2023-09-29T18:23:28.745Z,14.65
2023-09-29T18:25:56.156Z,16.33
2023-09-29T18:28:25.210Z,13.93
2023-09-29T18:30:52.900Z,29.92
2023-09-29T18:33:20.452Z,12.77
2023-09-29T18:35:49.277Z,13.13
2023-09-29T18:38:16.744Z,12.65
2023-09-29T18:40:44.187Z,14.75
2023-09-29T18:43:11.649Z,14.20
2023-09-29T18:45:39.142Z,13.05
2023-09-29T18:48:07.269Z,11.82
2023-09-29T18:50:35.849Z,12.52
2023-09-29T18:53:04.917Z,14.90
2023-09-29T18:55:32.534Z,22.27
2023-09-29T18:57:59.999Z,23.13
2023-09-29T19:00:32.896Z,25.92
2023-09-29T19:03:00.665Z,18.65
2023-09-29T19:05:28.210Z,14.10
2023-09-29T19:07:55.663Z,32.03
2023-09-29T19:10:24.442Z,28.63
2023-09-29T19:12:53.653Z,66.70
2023-09-29T19:15:22.520Z,38.08
2023-09-29T19:17:50.588Z,12.30
2023-09-29T19:20:18.645Z,18.88
2023-09-29T19:22:46.311Z,29.35
2023-09-29T19:25:13.837Z,11.75
2023-09-29T19:27:42.604Z,38.30
2023-09-29T19:30:11.720Z,36.45
2023-09-29T19:32:39.898Z,18.73
2023-09-29T19:35:08.080Z,15.20
2023-09-29T19:37:35.573Z,25.98
2023-09-29T19:40:03.085Z,9.18
2023-09-29T19:42:30.531Z,15.90
2023-09-29T19:44:59.547Z,22.00
2023-09-29T19:47:27.064Z,24.05
2023-09-29T19:49:54.499Z,17.02
2023-09-29T19:52:21.965Z,61.35
2023-09-29T19:54:49.490Z,17.60
2023-09-29T19:57:17.484Z,28.38
2023-09-29T19:59:45.541Z,25.48
2023-09-29T20:02:15.458Z,14.43
2023-09-29T20:04:42.965Z,13.32
2023-09-29T20:07:10.455Z,6.57
2023-09-29T20:09:37.988Z,5.57
2023-09-29T20:12:05.689Z,6.28
2023-09-29T20:14:33.155Z,7.20
2023-09-29T20:17:00.774Z,8.10
2023-09-29T20:19:29.574Z,7.53
2023-09-29T20:21:57.079Z,5.78
2023-09-29T20:24:25.264Z,5.20
2023-09-29T20:26:52.802Z,6.47
2023-09-29T20:29:23.249Z,8.48
2023-09-29T20:31:52.168Z,6.88
2023-09-29T20:34:19.711Z,7.65
2023-09-29T20:36:49.628Z,9.18
2023-09-29T20:39:17.810Z,9.18
2023-09-29T20:41:45.331Z,7.60
2023-09-29T20:44:13.276Z,10.43
2023-09-29T20:46:40.837Z,7.68
2023-09-29T20:49:08.268Z,9.73
2023-09-29T20:51:35.814Z,6.88
2023-09-29T20:54:04.805Z,7.43
2023-09-29T20:56:36.681Z,9.38
2023-09-29T20:59:05.146Z,7.35
2023-09-29T21:01:32.851Z,6.68
2023-09-29T21:04:07.320Z,8.05
2023-09-29T21:06:35.464Z,9.98
2023-09-29T21:09:04.594Z,11.20
2023-09-29T21:11:33.533Z,8.40
2023-09-29T21:14:01.349Z,5.10
2023-09-29T21:16:29.078Z,8.43
2023-09-29T21:18:56.700Z,8.70
2023-09-29T21:21:24.225Z,10.27
2023-09-29T21:23:51.797Z,9.15
2023-09-29T21:26:20.705Z,6.47
2023-09-29T21:28:48.246Z,7.32
2023-09-29T21:31:16.505Z,5.47
2023-09-29T21:33:44.228Z,5.22
2023-09-29T21:36:15.622Z,6.60
2023-09-29T21:38:43.436Z,6.82
2023-09-29T21:41:11.166Z,5.68
2023-09-29T21:43:40.270Z,7.38
2023-09-29T21:46:08.074Z,7.65
2023-09-29T21:48:36.433Z,8.20
2023-09-29T21:51:04.291Z,7.10
2023-09-29T21:53:31.781Z,8.05
2023-09-29T21:55:59.221Z,5.97
2023-09-29T21:58:26.708Z,6.72
2023-09-29T22:00:56.410Z,8.27
2023-09-29T22:03:24.265Z,5.22
2023-09-29T22:05:54.052Z,6.10
2023-09-29T22:08:22.129Z,6.20
2023-09-29T22:10:50.142Z,7.03
2023-09-29T22:13:20.778Z,7.38
2023-09-29T22:15:49.646Z,6.88
2023-09-29T22:18:19.183Z,6.13
2023-09-29T22:20:47.370Z,4.85
2023-09-29T22:23:17.939Z,7.28
2023-09-29T22:25:45.529Z,5.78
2023-09-29T22:28:13.070Z,5.05
2023-09-29T22:30:43.372Z,4.50
2023-09-29T22:33:10.959Z,3.80
2023-09-29T22:35:40.714Z,3.08
2023-09-29T22:38:09.010Z,2.22
2023-09-29T22:40:36.653Z,3.00
2023-09-29T22:43:04.650Z,3.03
2023-09-29T22:45:32.461Z,4.50
2023-09-29T22:48:00.153Z,1.50
2023-09-29T22:50:28.384Z,2.75
2023-09-29T22:52:57.169Z,1.27
2023-09-29T22:55:24.830Z,2.33
2023-09-29T22:57:52.716Z,1.02
2023-09-29T23:00:20.338Z,2.67
2023-09-29T23:02:48.052Z,1.67
2023-09-29T23:05:16.641Z,3.38
2023-09-29T23:07:44.286Z,3.38
2023-09-29T23:10:16.013Z,3.10
2023-09-29T23:12:47.099Z,6.07
2023-09-29T23:15:15.263Z,9.52
2023-09-29T23:17:42.868Z,4.40
2023-09-29T23:20:12.058Z,2.05
2023-09-29T23:22:39.981Z,2.63
2023-09-29T23:25:10.523Z,3.07
2023-09-29T23:27:39.711Z,1.70
2023-09-29T23:30:10.081Z,2.27
2023-09-29T23:32:38.489Z,3.43
2023-09-29T23:35:06.597Z,3.53
2023-09-29T23:37:34.108Z,2.53
2023-09-29T23:40:01.858Z,3.07
2023-09-29T23:42:29.496Z,3.73
2023-09-29T23:44:59.521Z,3.10
2023-09-29T23:47:27.433Z,4.80
2023-09-29T23:49:54.947Z,3.47
2023-09-29T23:52:22.765Z,4.50
2023-09-29T23:54:50.464Z,4.20
2023-09-29T23:57:18.077Z,10.37
2023-09-29T23:59:46.235Z,8.93
